sensor_id;sensor_type;location;lat;lon;timestamp;pressure;altitude;pressure_sealevel;temperature;humidity
12949;BME280;6539;49.476;8.484;2023-07-08T00:00:30;100462.84;;;25.24;32.19
12949;BME280;6539;49.476;8.484;2023-07-08T00:03:18;100458.72;;;25.14;32.06
12949;BME280;6539;49.476;8.484;2023-07-08T00:06:21;100463.56;;;25.08;31.84
12949;BME280;6539;49.476;8.484;2023-07-08T00:09:10;100463.56;;;25.08;31.95
12949;BME280;6539;49.476;8.484;2023-07-08T00:11:59;100451.03;;;25.09;31.86
12949;BME280;6539;49.476;8.484;2023-07-08T00:14:47;100451.03;;;25.09;31.94
12949;BME280;6539;49.476;8.484;2023-07-08T00:17:37;100449.25;;;25.11;31.30
12949;BME280;6539;49.476;8.484;2023-07-08T00:23:17;100441.34;;;25.10;31.55
12949;BME280;6539;49.476;8.484;2023-07-08T00:26:15;100440.06;;;25.11;31.70
12949;BME280;6539;49.476;8.484;2023-07-08T00:29:08;100439.78;;;25.09;32.06
12949;BME280;6539;49.476;8.484;2023-07-08T00:31:55;100434.69;;;25.02;32.03
12949;BME280;6539;49.476;8.484;2023-07-08T00:34:44;100437.97;;;25.00;32.05
12949;BME280;6539;49.476;8.484;2023-07-08T00:37:30;100440.50;;;24.92;32.47
12949;BME280;6539;49.476;8.484;2023-07-08T00:40:19;100447.88;;;24.90;33.04
12949;BME280;6539;49.476;8.484;2023-07-08T00:43:09;100450.16;;;24.86;33.14
12949;BME280;6539;49.476;8.484;2023-07-08T00:46:12;100450.66;;;24.84;33.25
12949;BME280;6539;49.476;8.484;2023-07-08T00:51:55;100455.44;;;24.73;33.55
12949;BME280;6539;49.476;8.484;2023-07-08T00:54:43;100452.53;;;24.62;33.57
12949;BME280;6539;49.476;8.484;2023-07-08T00:57:36;100466.00;;;24.52;33.68
12949;BME280;6539;49.476;8.484;2023-07-08T01:00:23;100464.69;;;24.48;34.26
12949;BME280;6539;49.476;8.484;2023-07-08T01:03:12;100471.31;;;24.45;34.23
12949;BME280;6539;49.476;8.484;2023-07-08T01:06:02;100474.56;;;24.38;34.42
12949;BME280;6539;49.476;8.484;2023-07-08T01:08:49;100472.78;;;24.35;34.93
12949;BME280;6539;49.476;8.484;2023-07-08T01:11:42;100475.25;;;24.27;35.35
12949;BME280;6539;49.476;8.484;2023-07-08T01:14:34;100472.69;;;24.23;35.79
12949;BME280;6539;49.476;8.484;2023-07-08T01:17:22;100468.03;;;24.20;36.30
12949;BME280;6539;49.476;8.484;2023-07-08T01:20:10;100465.41;;;24.11;37.00
12949;BME280;6539;49.476;8.484;2023-07-08T01:23:01;100467.69;;;24.07;37.79
12949;BME280;6539;49.476;8.484;2023-07-08T01:25:48;100463.06;;;24.04;38.08
12949;BME280;6539;49.476;8.484;2023-07-08T01:28:36;100462.75;;;24.02;38.44
12949;BME280;6539;49.476;8.484;2023-07-08T01:31:25;100463.75;;;23.99;38.70
12949;BME280;6539;49.476;8.484;2023-07-08T01:34:14;100456.31;;;23.96;38.95
12949;BME280;6539;49.476;8.484;2023-07-08T01:37:04;100453.53;;;23.96;39.50
12949;BME280;6539;49.476;8.484;2023-07-08T01:39:51;100449.19;;;23.95;40.01
12949;BME280;6539;49.476;8.484;2023-07-08T01:42:39;100453.53;;;23.96;40.01
12949;BME280;6539;49.476;8.484;2023-07-08T01:45:31;100449.47;;;23.97;40.45
12949;BME280;6539;49.476;8.484;2023-07-08T01:48:24;100444.06;;;23.94;40.77
12949;BME280;6539;49.476;8.484;2023-07-08T01:51:11;100438.41;;;23.88;40.76
12949;BME280;6539;49.476;8.484;2023-07-08T01:54:00;100436.31;;;23.83;41.10
12949;BME280;6539;49.476;8.484;2023-07-08T01:56:54;100448.03;;;23.82;41.00
12949;BME280;6539;49.476;8.484;2023-07-08T01:59:43;100439.91;;;23.84;41.02
12949;BME280;6539;49.476;8.484;2023-07-08T02:02:31;100436.84;;;23.87;40.83
12949;BME280;6539;49.476;8.484;2023-07-08T02:05:20;100440.78;;;23.95;40.99
12949;BME280;6539;49.476;8.484;2023-07-08T02:08:08;100440.22;;;23.91;41.29
12949;BME280;6539;49.476;8.484;2023-07-08T02:10:58;100438.84;;;23.81;41.68
12949;BME280;6539;49.476;8.484;2023-07-08T02:13:44;100434.94;;;23.73;41.86
12949;BME280;6539;49.476;8.484;2023-07-08T02:16:33;100437.47;;;23.71;41.82
12949;BME280;6539;49.476;8.484;2023-07-08T02:19:19;100438.72;;;23.70;42.14
12949;BME280;6539;49.476;8.484;2023-07-08T02:22:06;100435.19;;;23.70;42.29
12949;BME280;6539;49.476;8.484;2023-07-08T02:24:52;100432.84;;;23.68;42.32
12949;BME280;6539;49.476;8.484;2023-07-08T02:27:38;100435.59;;;23.63;42.79
12949;BME280;6539;49.476;8.484;2023-07-08T02:30:25;100428.91;;;23.55;42.92
12949;BME280;6539;49.476;8.484;2023-07-08T02:33:14;100431.97;;;23.57;43.08
12949;BME280;6539;49.476;8.484;2023-07-08T02:36:03;100441.63;;;23.56;43.15
12949;BME280;6539;49.476;8.484;2023-07-08T02:38:51;100444.41;;;23.50;43.54
12949;BME280;6539;49.476;8.484;2023-07-08T02:41:37;100445.88;;;23.45;43.80
12949;BME280;6539;49.476;8.484;2023-07-08T02:44:23;100448.13;;;23.41;44.02
12949;BME280;6539;49.476;8.484;2023-07-08T02:47:10;100448.31;;;23.38;44.07
12949;BME280;6539;49.476;8.484;2023-07-08T02:49:56;100451.13;;;23.38;44.20
12949;BME280;6539;49.476;8.484;2023-07-08T02:52:44;100454.19;;;23.40;44.20
12949;BME280;6539;49.476;8.484;2023-07-08T02:55:33;100454.00;;;23.43;44.10
12949;BME280;6539;49.476;8.484;2023-07-08T02:58:21;100449.38;;;23.40;44.36
12949;BME280;6539;49.476;8.484;2023-07-08T03:01:09;100453.84;;;23.32;44.96
12949;BME280;6539;49.476;8.484;2023-07-08T03:03:57;100460.09;;;23.22;45.07
12949;BME280;6539;49.476;8.484;2023-07-08T03:06:46;100454.91;;;23.15;44.83
12949;BME280;6539;49.476;8.484;2023-07-08T03:09:34;100457.41;;;23.13;44.83
12949;BME280;6539;49.476;8.484;2023-07-08T03:12:20;100460.63;;;23.06;44.99
12949;BME280;6539;49.476;8.484;2023-07-08T03:15:07;100467.41;;;22.99;45.50
12949;BME280;6539;49.476;8.484;2023-07-08T03:17:53;100460.00;;;22.96;45.38
12949;BME280;6539;49.476;8.484;2023-07-08T03:20:48;100454.13;;;22.94;45.72
12949;BME280;6539;49.476;8.484;2023-07-08T03:23:34;100455.88;;;22.92;45.42
12949;BME280;6539;49.476;8.484;2023-07-08T03:26:25;100456.66;;;22.92;45.85
12949;BME280;6539;49.476;8.484;2023-07-08T03:29:16;100460.19;;;22.93;45.69
12949;BME280;6539;49.476;8.484;2023-07-08T03:32:08;100454.31;;;22.91;45.44
12949;BME280;6539;49.476;8.484;2023-07-08T03:34:55;100459.34;;;22.87;45.94
12949;BME280;6539;49.476;8.484;2023-07-08T03:37:41;100463.44;;;22.86;46.15
12949;BME280;6539;49.476;8.484;2023-07-08T03:40:30;100470.56;;;22.87;46.33
12949;BME280;6539;49.476;8.484;2023-07-08T03:43:21;100471.13;;;22.91;46.08
12949;BME280;6539;49.476;8.484;2023-07-08T03:46:11;100474.41;;;22.89;46.49
12949;BME280;6539;49.476;8.484;2023-07-08T03:49:00;100470.84;;;22.89;46.54
12949;BME280;6539;49.476;8.484;2023-07-08T03:51:46;100469.09;;;22.91;46.29
12949;BME280;6539;49.476;8.484;2023-07-08T03:54:34;100471.69;;;22.95;46.39
12949;BME280;6539;49.476;8.484;2023-07-08T03:57:20;100463.88;;;22.99;46.52
12949;BME280;6539;49.476;8.484;2023-07-08T04:00:08;100463.44;;;23.06;46.37
12949;BME280;6539;49.476;8.484;2023-07-08T04:03:00;100472.97;;;23.14;46.23
12949;BME280;6539;49.476;8.484;2023-07-08T04:05:46;100453.44;;;23.19;45.93
12949;BME280;6539;49.476;8.484;2023-07-08T04:08:32;100461.88;;;23.25;45.86
12949;BME280;6539;49.476;8.484;2023-07-08T04:11:22;100463.59;;;23.37;45.72
12949;BME280;6539;49.476;8.484;2023-07-08T04:14:12;100462.13;;;23.41;45.58
12949;BME280;6539;49.476;8.484;2023-07-08T04:17:01;100463.19;;;23.44;45.90
12949;BME280;6539;49.476;8.484;2023-07-08T04:19:47;100470.53;;;23.41;46.09
12949;BME280;6539;49.476;8.484;2023-07-08T04:22:33;100468.72;;;23.38;46.16
12949;BME280;6539;49.476;8.484;2023-07-08T04:25:24;100468.06;;;23.29;46.95
12949;BME280;6539;49.476;8.484;2023-07-08T04:28:12;100473.31;;;23.21;46.99
12949;BME280;6539;49.476;8.484;2023-07-08T04:30:58;100483.00;;;23.20;47.29
12949;BME280;6539;49.476;8.484;2023-07-08T04:33:44;100473.69;;;23.29;46.97
12949;BME280;6539;49.476;8.484;2023-07-08T04:36:33;100482.72;;;23.38;46.69
12949;BME280;6539;49.476;8.484;2023-07-08T04:39:20;100482.09;;;23.49;46.75
12949;BME280;6539;49.476;8.484;2023-07-08T04:42:08;100478.84;;;23.56;46.46
12949;BME280;6539;49.476;8.484;2023-07-08T04:44:54;100479.91;;;23.59;46.32
12949;BME280;6539;49.476;8.484;2023-07-08T04:47:40;100483.75;;;23.61;46.50
12949;BME280;6539;49.476;8.484;2023-07-08T04:50:26;100485.84;;;23.66;46.46
12949;BME280;6539;49.476;8.484;2023-07-08T04:53:15;100479.69;;;23.62;46.98
12949;BME280;6539;49.476;8.484;2023-07-08T04:56:02;100491.59;;;23.57;46.81
12949;BME280;6539;49.476;8.484;2023-07-08T04:58:48;100487.00;;;23.54;45.82
12949;BME280;6539;49.476;8.484;2023-07-08T05:01:34;100482.63;;;23.53;45.70
12949;BME280;6539;49.476;8.484;2023-07-08T05:04:22;100487.28;;;23.56;45.43
12949;BME280;6539;49.476;8.484;2023-07-08T05:07:08;100492.72;;;23.65;45.44
12949;BME280;6539;49.476;8.484;2023-07-08T05:09:54;100487.72;;;23.75;44.98
12949;BME280;6539;49.476;8.484;2023-07-08T05:12:40;100507.47;;;23.86;43.75
12949;BME280;6539;49.476;8.484;2023-07-08T05:15:29;100517.47;;;23.92;46.06
12949;BME280;6539;49.476;8.484;2023-07-08T05:18:15;100520.84;;;23.96;46.55
12949;BME280;6539;49.476;8.484;2023-07-08T05:21:02;100511.88;;;23.92;46.98
12949;BME280;6539;49.476;8.484;2023-07-08T05:23:53;100517.75;;;23.94;46.95
12949;BME280;6539;49.476;8.484;2023-07-08T05:26:42;100520.84;;;23.96;46.61
12949;BME280;6539;49.476;8.484;2023-07-08T05:29:28;100529.06;;;24.00;46.22
12949;BME280;6539;49.476;8.484;2023-07-08T05:32:17;100525.47;;;23.99;45.77
12949;BME280;6539;49.476;8.484;2023-07-08T05:35:03;100513.56;;;24.04;45.53
12949;BME280;6539;49.476;8.484;2023-07-08T05:37:50;100519.78;;;24.14;45.00
12949;BME280;6539;49.476;8.484;2023-07-08T05:40:36;100537.16;;;24.18;44.62
12949;BME280;6539;49.476;8.484;2023-07-08T05:43:22;100543.81;;;24.20;44.16
12949;BME280;6539;49.476;8.484;2023-07-08T05:46:08;100551.72;;;24.22;43.99
12949;BME280;6539;49.476;8.484;2023-07-08T05:48:56;100568.25;;;24.14;41.81
12949;BME280;6539;49.476;8.484;2023-07-08T05:51:47;100584.53;;;24.10;42.59
12949;BME280;6539;49.476;8.484;2023-07-08T05:54:38;100588.66;;;24.15;43.05
12949;BME280;6539;49.476;8.484;2023-07-08T05:57:27;100571.81;;;24.15;43.05
12949;BME280;6539;49.476;8.484;2023-07-08T06:00:14;100573.44;;;24.21;42.54
12949;BME280;6539;49.476;8.484;2023-07-08T06:03:00;100567.59;;;24.25;42.82
12949;BME280;6539;49.476;8.484;2023-07-08T06:05:46;100590.25;;;24.21;43.69
12949;BME280;6539;49.476;8.484;2023-07-08T06:08:32;100610.56;;;24.11;44.21
12949;BME280;6539;49.476;8.484;2023-07-08T06:11:19;100614.94;;;23.97;43.07
12949;BME280;6539;49.476;8.484;2023-07-08T06:14:05;100616.66;;;23.89;42.85
12949;BME280;6539;49.476;8.484;2023-07-08T06:16:54;100610.59;;;23.96;42.24
12949;BME280;6539;49.476;8.484;2023-07-08T06:19:40;100617.66;;;24.06;42.35
12949;BME280;6539;49.476;8.484;2023-07-08T06:22:26;100625.59;;;24.13;40.21
12949;BME280;6539;49.476;8.484;2023-07-08T06:25:18;100615.78;;;24.03;40.55
12949;BME280;6539;49.476;8.484;2023-07-08T06:28:04;100603.00;;;24.02;40.89
12949;BME280;6539;49.476;8.484;2023-07-08T06:30:50;100600.81;;;24.06;39.91
12949;BME280;6539;49.476;8.484;2023-07-08T06:33:39;100610.88;;;24.18;37.79
12949;BME280;6539;49.476;8.484;2023-07-08T06:36:25;100607.16;;;24.27;37.48
12949;BME280;6539;49.476;8.484;2023-07-08T06:39:11;100600.94;;;24.43;37.47
12949;BME280;6539;49.476;8.484;2023-07-08T06:41:57;100608.19;;;24.55;37.37
12949;BME280;6539;49.476;8.484;2023-07-08T06:44:43;100609.00;;;24.61;37.55
12949;BME280;6539;49.476;8.484;2023-07-08T06:47:36;100592.44;;;24.63;37.61
12949;BME280;6539;49.476;8.484;2023-07-08T06:50:22;100592.22;;;24.67;37.17
12949;BME280;6539;49.476;8.484;2023-07-08T06:53:10;100588.41;;;24.70;37.02
12949;BME280;6539;49.476;8.484;2023-07-08T06:55:56;100590.72;;;24.71;36.92
12949;BME280;6539;49.476;8.484;2023-07-08T06:58:43;100598.72;;;24.78;36.47
12949;BME280;6539;49.476;8.484;2023-07-08T07:01:29;100598.97;;;24.80;36.57
12949;BME280;6539;49.476;8.484;2023-07-08T07:04:15;100598.97;;;24.80;36.26
12949;BME280;6539;49.476;8.484;2023-07-08T07:07:01;100594.69;;;24.85;35.97
12949;BME280;6539;49.476;8.484;2023-07-08T07:09:49;100590.56;;;24.80;36.50
12949;BME280;6539;49.476;8.484;2023-07-08T07:12:38;100600.53;;;24.81;36.75
12949;BME280;6539;49.476;8.484;2023-07-08T07:15:26;100601.63;;;24.89;36.63
12949;BME280;6539;49.476;8.484;2023-07-08T07:18:12;100602.47;;;25.01;36.85
12949;BME280;6539;49.476;8.484;2023-07-08T07:20:59;100602.84;;;25.20;36.56
12949;BME280;6539;49.476;8.484;2023-07-08T07:23:45;100592.22;;;25.35;36.44
12949;BME280;6539;49.476;8.484;2023-07-08T07:26:31;100593.00;;;25.41;36.51
12949;BME280;6539;49.476;8.484;2023-07-08T07:29:21;100597.69;;;25.49;36.41
12949;BME280;6539;49.476;8.484;2023-07-08T07:32:09;100606.38;;;25.51;36.63
12949;BME280;6539;49.476;8.484;2023-07-08T07:34:55;100611.22;;;25.45;36.45
12949;BME280;6539;49.476;8.484;2023-07-08T07:37:43;100614.34;;;25.53;37.13
12949;BME280;6539;49.476;8.484;2023-07-08T07:40:34;100619.97;;;25.58;38.14
12949;BME280;6539;49.476;8.484;2023-07-08T07:43:23;100620.44;;;25.46;39.10
12949;BME280;6539;49.476;8.484;2023-07-08T07:46:09;100620.09;;;25.38;40.20
12949;BME280;6539;49.476;8.484;2023-07-08T07:48:56;100626.00;;;25.40;40.27
12949;BME280;6539;49.476;8.484;2023-07-08T07:51:42;100624.72;;;25.41;40.71
12949;BME280;6539;49.476;8.484;2023-07-08T07:54:28;100627.72;;;25.32;41.27
12949;BME280;6539;49.476;8.484;2023-07-08T07:57:14;100625.69;;;25.38;41.63
12949;BME280;6539;49.476;8.484;2023-07-08T08:00:03;100635.06;;;25.55;41.78
12949;BME280;6539;49.476;8.484;2023-07-08T08:02:49;100631.75;;;25.57;42.67
12949;BME280;6539;49.476;8.484;2023-07-08T08:05:35;100632.25;;;25.55;43.01
12949;BME280;6539;49.476;8.484;2023-07-08T08:08:21;100634.34;;;25.66;43.32
12949;BME280;6539;49.476;8.484;2023-07-08T08:11:08;100632.03;;;25.64;43.77
12949;BME280;6539;49.476;8.484;2023-07-08T08:13:57;100641.28;;;25.70;43.19
12949;BME280;6539;49.476;8.484;2023-07-08T08:16:43;100641.28;;;25.76;43.79
12949;BME280;6539;49.476;8.484;2023-07-08T08:19:29;100646.19;;;25.87;43.72
12949;BME280;6539;49.476;8.484;2023-07-08T08:22:16;100642.88;;;25.88;44.59
12949;BME280;6539;49.476;8.484;2023-07-08T08:25:02;100641.09;;;25.91;44.95
12949;BME280;6539;49.476;8.484;2023-07-08T08:27:48;100644.47;;;26.06;45.25
12949;BME280;6539;49.476;8.484;2023-07-08T08:30:37;100647.91;;;26.26;45.66
12949;BME280;6539;49.476;8.484;2023-07-08T08:33:27;100654.88;;;26.53;45.39
12949;BME280;6539;49.476;8.484;2023-07-08T08:36:16;100637.47;;;26.60;45.43
12949;BME280;6539;49.476;8.484;2023-07-08T08:39:02;100649.00;;;26.68;45.05
12949;BME280;6539;49.476;8.484;2023-07-08T08:41:50;100651.09;;;26.73;45.65
12949;BME280;6539;49.476;8.484;2023-07-08T08:44:39;100655.41;;;26.68;46.01
12949;BME280;6539;49.476;8.484;2023-07-08T08:47:42;100652.13;;;26.81;45.61
12949;BME280;6539;49.476;8.484;2023-07-08T08:50:36;100649.81;;;26.79;45.75
12949;BME280;6539;49.476;8.484;2023-07-08T08:53:29;100640.09;;;26.86;45.91
12949;BME280;6539;49.476;8.484;2023-07-08T08:56:24;100634.47;;;26.91;45.00
12949;BME280;6539;49.476;8.484;2023-07-08T09:03:01;100643.66;;;27.25;44.02
12949;BME280;6539;49.476;8.484;2023-07-08T09:05:51;100641.38;;;27.24;43.69
12949;BME280;6539;49.476;8.484;2023-07-08T09:08:38;100650.84;;;27.20;44.47
12949;BME280;6539;49.476;8.484;2023-07-08T09:11:57;100644.41;;;27.31;44.15
12949;BME280;6539;49.476;8.484;2023-07-08T09:14:48;100638.78;;;27.42;43.21
12949;BME280;6539;49.476;8.484;2023-07-08T09:17:38;100632.84;;;27.35;43.26
12949;BME280;6539;49.476;8.484;2023-07-08T09:20:28;100635.72;;;27.24;43.30
12949;BME280;6539;49.476;8.484;2023-07-08T09:23:30;100634.94;;;27.29;43.44
12949;BME280;6539;49.476;8.484;2023-07-08T09:26:23;100632.66;;;27.38;43.30
12949;BME280;6539;49.476;8.484;2023-07-08T09:29:12;100642.63;;;27.45;42.77
12949;BME280;6539;49.476;8.484;2023-07-08T09:32:01;100636.44;;;27.57;42.54
12949;BME280;6539;49.476;8.484;2023-07-08T09:35:08;100633.59;;;27.63;42.58
12949;BME280;6539;49.476;8.484;2023-07-08T09:37:55;100637.44;;;27.71;42.59
12949;BME280;6539;49.476;8.484;2023-07-08T09:40:51;100632.78;;;27.73;42.65
12949;BME280;6539;49.476;8.484;2023-07-08T09:43:40;100623.53;;;27.78;42.66
12949;BME280;6539;49.476;8.484;2023-07-08T09:46:28;100621.97;;;27.83;43.04
12949;BME280;6539;49.476;8.484;2023-07-08T09:49:21;100627.38;;;27.81;43.63
12949;BME280;6539;49.476;8.484;2023-07-08T09:52:12;100629.09;;;27.95;43.92
12949;BME280;6539;49.476;8.484;2023-07-08T09:54:58;100629.31;;;28.08;43.75
12949;BME280;6539;49.476;8.484;2023-07-08T09:57:50;100626.97;;;28.18;43.37
12949;BME280;6539;49.476;8.484;2023-07-08T10:00:42;100619.78;;;28.17;43.22
12949;BME280;6539;49.476;8.484;2023-07-08T10:03:33;100627.47;;;28.27;43.05
12949;BME280;6539;49.476;8.484;2023-07-08T10:06:28;100628.19;;;28.28;42.92
12949;BME280;6539;49.476;8.484;2023-07-08T10:09:21;100639.78;;;28.19;43.24
12949;BME280;6539;49.476;8.484;2023-07-08T10:12:13;100634.16;;;28.19;43.37
12949;BME280;6539;49.476;8.484;2023-07-08T10:15:10;100632.88;;;28.20;43.09
12949;BME280;6539;49.476;8.484;2023-07-08T10:21:14;100627.16;;;28.31;43.09
12949;BME280;6539;49.476;8.484;2023-07-08T10:27:40;100639.44;;;28.80;41.13
12949;BME280;6539;49.476;8.484;2023-07-08T10:34:14;100630.53;;;29.00;40.79
12949;BME280;6539;49.476;8.484;2023-07-08T10:37:34;100625.25;;;29.15;39.63
12949;BME280;6539;49.476;8.484;2023-07-08T10:40:58;100622.09;;;29.48;39.34
12949;BME280;6539;49.476;8.484;2023-07-08T10:44:09;100624.25;;;29.85;38.97
12949;BME280;6539;49.476;8.484;2023-07-08T10:51:01;100626.31;;;31.09;36.42
12949;BME280;6539;49.476;8.484;2023-07-08T10:54:02;100617.63;;;31.99;34.51
12949;BME280;6539;49.476;8.484;2023-07-08T10:57:20;100617.38;;;32.44;34.20
12949;BME280;6539;49.476;8.484;2023-07-08T11:04:25;100624.63;;;31.72;35.29
12949;BME280;6539;49.476;8.484;2023-07-08T11:07:43;100617.41;;;31.84;35.32
12949;BME280;6539;49.476;8.484;2023-07-08T11:10:48;100603.69;;;32.21;34.95
12949;BME280;6539;49.476;8.484;2023-07-08T11:13:45;100604.19;;;32.87;33.52
12949;BME280;6539;49.476;8.484;2023-07-08T11:17:26;100604.84;;;33.22;33.02
12949;BME280;6539;49.476;8.484;2023-07-08T11:23:36;100600.69;;;33.79;32.07
12949;BME280;6539;49.476;8.484;2023-07-08T11:26:30;100605.22;;;33.74;32.27
12949;BME280;6539;49.476;8.484;2023-07-08T11:29:25;100604.00;;;33.62;32.28
12949;BME280;6539;49.476;8.484;2023-07-08T11:32:18;100603.41;;;33.92;32.44
12949;BME280;6539;49.476;8.484;2023-07-08T11:35:34;100597.44;;;33.75;32.01
12949;BME280;6539;49.476;8.484;2023-07-08T11:38:22;100592.59;;;33.98;31.91
12949;BME280;6539;49.476;8.484;2023-07-08T11:41:19;100587.84;;;34.51;31.30
12949;BME280;6539;49.476;8.484;2023-07-08T11:44:10;100585.00;;;34.97;30.66
12949;BME280;6539;49.476;8.484;2023-07-08T11:46:57;100585.22;;;35.21;29.58
12949;BME280;6539;49.476;8.484;2023-07-08T11:49:50;100595.75;;;35.74;29.45
12949;BME280;6539;49.476;8.484;2023-07-08T11:52:37;100583.53;;;35.81;28.94
12949;BME280;6539;49.476;8.484;2023-07-08T11:55:47;100573.59;;;36.61;27.63
12949;BME280;6539;49.476;8.484;2023-07-08T12:01:47;100574.41;;;35.75;28.44
12949;BME280;6539;49.476;8.484;2023-07-08T12:04:36;100564.91;;;35.72;28.80
12949;BME280;6539;49.476;8.484;2023-07-08T12:07:45;100565.63;;;35.80;29.01
12949;BME280;6539;49.476;8.484;2023-07-08T12:10:37;100570.59;;;36.20;27.99
12949;BME280;6539;49.476;8.484;2023-07-08T12:13:25;100561.84;;;36.50;27.71
12949;BME280;6539;49.476;8.484;2023-07-08T12:16:17;100552.16;;;37.12;27.13
12949;BME280;6539;49.476;8.484;2023-07-08T12:19:05;100557.41;;;37.57;26.36
12949;BME280;6539;49.476;8.484;2023-07-08T12:21:52;100542.47;;;37.93;26.02
12949;BME280;6539;49.476;8.484;2023-07-08T12:24:41;100539.19;;;38.59;25.12
12949;BME280;6539;49.476;8.484;2023-07-08T12:27:29;100547.44;;;38.72;24.25
12949;BME280;6539;49.476;8.484;2023-07-08T12:30:16;100546.88;;;38.57;24.30
12949;BME280;6539;49.476;8.484;2023-07-08T12:33:12;100545.31;;;38.37;24.73
12949;BME280;6539;49.476;8.484;2023-07-08T12:36:04;100546.09;;;38.47;23.76
12949;BME280;6539;49.476;8.484;2023-07-08T12:38:55;100548.97;;;37.93;24.16
12949;BME280;6539;49.476;8.484;2023-07-08T12:41:45;100548.50;;;37.36;25.11
12949;BME280;6539;49.476;8.484;2023-07-08T12:44:31;100545.44;;;37.34;25.29
12949;BME280;6539;49.476;8.484;2023-07-08T12:47:20;100550.50;;;37.60;25.01
12949;BME280;6539;49.476;8.484;2023-07-08T12:50:11;100547.25;;;38.07;24.64
12949;BME280;6539;49.476;8.484;2023-07-08T12:53:00;100542.03;;;38.50;23.65
12949;BME280;6539;49.476;8.484;2023-07-08T12:55:58;100544.75;;;38.94;22.84
12949;BME280;6539;49.476;8.484;2023-07-08T12:58:56;100550.81;;;38.88;23.56
12949;BME280;6539;49.476;8.484;2023-07-08T13:01:45;100532.06;;;39.06;23.39
12949;BME280;6539;49.476;8.484;2023-07-08T13:04:36;100543.56;;;39.06;24.17
12949;BME280;6539;49.476;8.484;2023-07-08T13:07:45;100535.38;;;38.83;23.53
12949;BME280;6539;49.476;8.484;2023-07-08T13:10:34;100539.59;;;38.46;24.10
12949;BME280;6539;49.476;8.484;2023-07-08T13:13:26;100539.16;;;38.50;24.11
12949;BME280;6539;49.476;8.484;2023-07-08T13:16:15;100544.00;;;38.21;24.24
12949;BME280;6539;49.476;8.484;2023-07-08T13:19:02;100539.19;;;38.23;23.99
12949;BME280;6539;49.476;8.484;2023-07-08T13:21:50;100534.75;;;38.75;23.40
12949;BME280;6539;49.476;8.484;2023-07-08T13:24:39;100534.69;;;39.50;23.02
12949;BME280;6539;49.476;8.484;2023-07-08T13:27:26;100534.13;;;39.61;22.40
12949;BME280;6539;49.476;8.484;2023-07-08T13:30:25;100520.97;;;40.58;21.57
12949;BME280;6539;49.476;8.484;2023-07-08T13:33:16;100523.19;;;40.69;21.30
12949;BME280;6539;49.476;8.484;2023-07-08T13:36:05;100523.16;;;40.48;21.56
12949;BME280;6539;49.476;8.484;2023-07-08T13:38:51;100524.56;;;40.27;22.01
12949;BME280;6539;49.476;8.484;2023-07-08T13:41:44;100522.06;;;40.53;21.54
12949;BME280;6539;49.476;8.484;2023-07-08T13:44:31;100514.41;;;40.67;21.57
12949;BME280;6539;49.476;8.484;2023-07-08T13:47:27;100516.03;;;41.00;21.12
12949;BME280;6539;49.476;8.484;2023-07-08T13:50:28;100510.47;;;40.31;21.59
12949;BME280;6539;49.476;8.484;2023-07-08T13:53:23;100517.91;;;38.26;23.96
12949;BME280;6539;49.476;8.484;2023-07-08T13:59:10;100518.88;;;36.01;26.60
12949;BME280;6539;49.476;8.484;2023-07-08T14:01:57;100517.59;;;35.24;27.73
12949;BME280;6539;49.476;8.484;2023-07-08T14:04:44;100523.00;;;34.75;28.44
12949;BME280;6539;49.476;8.484;2023-07-08T14:07:34;100517.63;;;34.33;29.01
12949;BME280;6539;49.476;8.484;2023-07-08T14:10:20;100515.50;;;34.04;29.15
12949;BME280;6539;49.476;8.484;2023-07-08T14:13:11;100502.91;;;33.99;29.60
12949;BME280;6539;49.476;8.484;2023-07-08T14:15:59;100505.19;;;33.93;29.62
12949;BME280;6539;49.476;8.484;2023-07-08T14:18:49;100502.91;;;33.92;29.22
12949;BME280;6539;49.476;8.484;2023-07-08T14:21:36;100494.31;;;33.84;29.55
12949;BME280;6539;49.476;8.484;2023-07-08T14:24:22;100501.56;;;33.85;28.83
12949;BME280;6539;49.476;8.484;2023-07-08T14:27:09;100501.13;;;33.73;28.83
12949;BME280;6539;49.476;8.484;2023-07-08T14:30:00;100501.31;;;33.68;29.56
12949;BME280;6539;49.476;8.484;2023-07-08T14:32:46;100498.13;;;33.79;29.10
12949;BME280;6539;49.476;8.484;2023-07-08T14:35:32;100493.72;;;33.70;29.29
12949;BME280;6539;49.476;8.484;2023-07-08T14:38:18;100493.91;;;33.72;29.20
12949;BME280;6539;49.476;8.484;2023-07-08T14:41:07;100496.78;;;33.80;28.73
12949;BME280;6539;49.476;8.484;2023-07-08T14:43:55;100494.06;;;33.67;28.49
12949;BME280;6539;49.476;8.484;2023-07-08T14:46:41;100500.59;;;33.83;28.21
12949;BME280;6539;49.476;8.484;2023-07-08T14:49:30;100499.88;;;33.97;27.95
12949;BME280;6539;49.476;8.484;2023-07-08T14:52:16;100496.91;;;34.18;28.11
12949;BME280;6539;49.476;8.484;2023-07-08T14:55:02;100495.41;;;34.62;27.08
12949;BME280;6539;49.476;8.484;2023-07-08T14:57:53;100487.06;;;35.89;25.64
12949;BME280;6539;49.476;8.484;2023-07-08T15:00:41;100484.00;;;37.27;22.57
12949;BME280;6539;49.476;8.484;2023-07-08T15:03:29;100489.63;;;38.13;20.97
12949;BME280;6539;49.476;8.484;2023-07-08T15:06:15;100484.47;;;39.32;19.21
12949;BME280;6539;49.476;8.484;2023-07-08T15:09:02;100494.91;;;39.18;18.65
12949;BME280;6539;49.476;8.484;2023-07-08T15:11:48;100485.94;;;39.81;18.66
12949;BME280;6539;49.476;8.484;2023-07-08T15:14:34;100479.59;;;41.26;17.45
12949;BME280;6539;49.476;8.484;2023-07-08T15:17:22;100472.22;;;42.12;16.46
12949;BME280;6539;49.476;8.484;2023-07-08T15:20:13;100485.00;;;42.32;15.33
12949;BME280;6539;49.476;8.484;2023-07-08T15:23:00;100471.19;;;42.19;14.56
12949;BME280;6539;49.476;8.484;2023-07-08T15:25:48;100478.41;;;41.73;15.48
12949;BME280;6539;49.476;8.484;2023-07-08T15:28:50;100470.41;;;40.97;16.33
12949;BME280;6539;49.476;8.484;2023-07-08T15:31:37;100475.72;;;40.70;15.11
12949;BME280;6539;49.476;8.484;2023-07-08T15:34:23;100474.09;;;41.09;15.73
12949;BME280;6539;49.476;8.484;2023-07-08T15:37:09;100474.25;;;41.11;15.47